createdAt,value
2018-12-31T00:00:33.069Z,98206.02
2018-12-31T00:03:38.349Z,98214.08
2018-12-31T00:06:43.755Z,98216.25
2018-12-31T00:09:49.080Z,98225.95
2018-12-31T00:12:54.544Z,98225.11
2018-12-31T00:15:59.831Z,98227.81
2018-12-31T00:19:05.236Z,98227.88
2018-12-31T00:22:10.513Z,98231.05
2018-12-31T00:25:15.922Z,98235.77
2018-12-31T00:28:21.358Z,98239.06
2018-12-31T00:31:26.825Z,98245.03
2018-12-31T00:34:32.105Z,98249.04
2018-12-31T00:37:37.612Z,98251.02
2018-12-31T00:40:42.884Z,98252.33
2018-12-31T00:43:48.303Z,98253.53
2018-12-31T00:46:53.583Z,98258.13
2018-12-31T00:49:58.987Z,98258.64
2018-12-31T00:53:04.375Z,98262.25
2018-12-31T00:56:09.886Z,98261.48
2018-12-31T00:59:15.157Z,98269.78
2018-12-31T01:02:20.572Z,98272.55
2018-12-31T01:05:25.846Z,98277.39
2018-12-31T01:08:31.364Z,98285.94
2018-12-31T01:11:36.631Z,98292.82
2018-12-31T01:14:42.051Z,98294.97
2018-12-31T01:17:47.333Z,98291.58
2018-12-31T01:20:52.757Z,98301.13
2018-12-31T01:23:58.019Z,98298.50
2018-12-31T01:27:03.445Z,98302.97
2018-12-31T01:30:09.331Z,98303.48
2018-12-31T01:33:14.740Z,98304.36
2018-12-31T01:36:20.012Z,98298.71
2018-12-31T01:39:25.428Z,98305.20
2018-12-31T01:42:30.705Z,98304.55
2018-12-31T01:45:36.204Z,98308.87
2018-12-31T01:48:41.483Z,98313.72
2018-12-31T01:51:47.013Z,98315.94
2018-12-31T01:54:53.110Z,98315.80
2018-12-31T01:57:58.522Z,98321.52
2018-12-31T02:01:03.792Z,98317.18
2018-12-31T02:04:09.209Z,98315.94
2018-12-31T02:07:14.477Z,98323.41
2018-12-31T02:10:19.903Z,98323.95
2018-12-31T02:13:25.221Z,98323.30
2018-12-31T02:16:30.584Z,98323.14
2018-12-31T02:19:35.855Z,98322.88
2018-12-31T02:22:41.275Z,98325.70
2018-12-31T02:25:46.557Z,98320.12
2018-12-31T02:28:52.324Z,98321.91
2018-12-31T02:31:57.738Z,98318.35
2018-12-31T02:35:03.374Z,98322.09
2018-12-31T02:38:08.645Z,98317.83
2018-12-31T02:41:14.066Z,98319.73
2018-12-31T02:44:19.335Z,98321.95
2018-12-31T02:47:24.749Z,98315.01
2018-12-31T02:50:30.084Z,98315.01
2018-12-31T02:53:35.542Z,98317.63
2018-12-31T02:56:40.923Z,98318.53
2018-12-31T02:59:46.652Z,98322.60
2018-12-31T03:02:51.922Z,98319.17
2018-12-31T03:05:57.333Z,98321.53
2018-12-31T03:09:02.606Z,98315.18
2018-12-31T03:12:08.019Z,98319.05
2018-12-31T03:15:13.345Z,98322.70
2018-12-31T03:18:18.815Z,98332.67
2018-12-31T03:21:24.086Z,98318.27
2018-12-31T03:24:29.603Z,98315.05
2018-12-31T03:27:34.868Z,98322.00
2018-12-31T03:30:40.251Z,98322.47
2018-12-31T03:33:45.527Z,98330.59
2018-12-31T03:36:51.190Z,98336.61
2018-12-31T03:39:56.473Z,98337.52
2018-12-31T03:43:02.284Z,98336.10
2018-12-31T03:46:07.560Z,98341.27
2018-12-31T03:49:12.978Z,98341.71
2018-12-31T03:52:18.508Z,98345.77
2018-12-31T03:55:23.887Z,98346.37
2018-12-31T03:58:29.295Z,98344.20
2018-12-31T04:01:34.648Z,98347.45
2018-12-31T04:04:39.958Z,98342.95
2018-12-31T04:07:52.767Z,98347.72
2018-12-31T04:10:52.318Z,98356.45
2018-12-31T04:13:57.781Z,98354.74
2018-12-31T04:17:03.056Z,98359.58
2018-12-31T04:20:08.467Z,98358.34
2018-12-31T04:23:13.747Z,98368.69
2018-12-31T04:26:19.166Z,98364.66
2018-12-31T04:29:24.448Z,98372.67
2018-12-31T04:32:30.161Z,98372.74
2018-12-31T04:35:35.429Z,98381.51
2018-12-31T04:38:40.847Z,98379.55
2018-12-31T04:41:46.150Z,98385.70
2018-12-31T04:44:51.540Z,98386.20
2018-12-31T04:47:56.807Z,98393.99
2018-12-31T04:51:02.225Z,98392.25
2018-12-31T04:54:07.496Z,98396.17
2018-12-31T04:57:12.911Z,98401.69
2018-12-31T05:00:18.191Z,98410.98
2018-12-31T05:03:23.604Z,98406.52
2018-12-31T05:06:28.878Z,98415.35
2018-12-31T05:09:34.393Z,98417.00
2018-12-31T05:12:39.658Z,98421.73
2018-12-31T05:15:45.090Z,98425.54
2018-12-31T05:18:50.351Z,98432.99
2018-12-31T05:21:55.716Z,98434.17
2018-12-31T05:25:00.990Z,98440.45
2018-12-31T05:28:06.358Z,98444.56
2018-12-31T05:31:11.645Z,98436.77
2018-12-31T05:34:17.048Z,98445.31
2018-12-31T05:37:22.323Z,98451.39
2018-12-31T05:40:27.676Z,98453.95
2018-12-31T05:43:32.942Z,98458.50
2018-12-31T05:46:38.330Z,98461.53
2018-12-31T05:49:43.601Z,98473.31
2018-12-31T05:52:48.957Z,98461.25
2018-12-31T05:55:54.228Z,98474.34
2018-12-31T05:58:59.599Z,98474.34
2018-12-31T06:02:04.979Z,98479.99
2018-12-31T06:05:10.599Z,98479.46
2018-12-31T06:08:15.872Z,98484.83
2018-12-31T06:11:21.266Z,98486.95
2018-12-31T06:14:26.540Z,98488.62
2018-12-31T06:17:31.903Z,98493.43
2018-12-31T06:20:37.174Z,98498.67
2018-12-31T06:23:42.564Z,98504.34
2018-12-31T06:26:47.841Z,98510.95
2018-12-31T06:29:53.253Z,98514.05
2018-12-31T06:32:58.578Z,98517.91
2018-12-31T06:36:03.936Z,98523.49
2018-12-31T06:39:09.377Z,98530.54
2018-12-31T06:42:14.834Z,98536.59
2018-12-31T06:45:20.107Z,98535.09
2018-12-31T06:48:25.468Z,98538.59
2018-12-31T06:51:30.735Z,98547.41
2018-12-31T06:54:36.089Z,98543.02
2018-12-31T06:57:41.368Z,98553.09
2018-12-31T07:00:46.865Z,98554.80
2018-12-31T07:03:53.003Z,98559.26
2018-12-31T07:06:58.517Z,98570.05
2018-12-31T07:10:04.381Z,98567.49
2018-12-31T07:13:09.717Z,98567.06
2018-12-31T07:16:15.077Z,98573.14
2018-12-31T07:19:20.508Z,98577.88
2018-12-31T07:22:25.876Z,98581.00
2018-12-31T07:25:31.301Z,98586.59
2018-12-31T07:28:36.577Z,98588.70
2018-12-31T07:31:41.947Z,98595.20
2018-12-31T07:34:47.208Z,98592.66
2018-12-31T07:37:52.676Z,98596.59
2018-12-31T07:40:57.953Z,98611.70
2018-12-31T07:44:03.370Z,98607.42
2018-12-31T07:47:08.643Z,98615.22
2018-12-31T07:50:14.056Z,98610.04
2018-12-31T07:53:19.339Z,98617.47
2018-12-31T07:56:24.757Z,98621.40
2018-12-31T07:59:30.171Z,98633.19
2018-12-31T08:02:35.642Z,98631.28
2018-12-31T08:05:41.018Z,98624.02
2018-12-31T08:08:46.431Z,98632.66
2018-12-31T08:11:51.710Z,98634.38
2018-12-31T08:14:57.121Z,98636.09
2018-12-31T08:18:02.403Z,98648.73
2018-12-31T08:21:07.914Z,98649.02
2018-12-31T08:24:13.189Z,98652.51
2018-12-31T08:27:18.599Z,98653.82
2018-12-31T08:30:23.878Z,98662.98
2018-12-31T08:33:29.292Z,98661.70
2018-12-31T08:36:34.571Z,98666.11
2018-12-31T08:39:39.982Z,98668.73
2018-12-31T08:42:45.300Z,98677.61
2018-12-31T08:45:50.770Z,98676.70
2018-12-31T08:48:56.049Z,98681.48
2018-12-31T08:52:01.561Z,98684.04
2018-12-31T08:55:06.845Z,98694.88
2018-12-31T08:58:12.206Z,98691.00
2018-12-31T09:01:17.486Z,98694.93
2018-12-31T09:04:22.941Z,98697.95
2018-12-31T09:07:28.523Z,98698.74
2018-12-31T09:10:34.246Z,98709.08
2018-12-31T09:13:39.535Z,98703.84
2018-12-31T09:16:44.935Z,98709.43
2018-12-31T09:19:50.218Z,98715.92
2018-12-31T09:22:55.624Z,98714.49
2018-12-31T09:26:00.900Z,98724.02
2018-12-31T09:29:06.322Z,98726.92
2018-12-31T09:32:11.595Z,98728.53
2018-12-31T09:35:17.003Z,98726.31
2018-12-31T09:38:22.280Z,98728.31
2018-12-31T09:41:27.699Z,98726.89
2018-12-31T09:44:33.206Z,98730.61
2018-12-31T09:47:38.566Z,98733.89
2018-12-31T09:50:43.841Z,98736.77
2018-12-31T09:53:49.276Z,98733.69
2018-12-31T09:56:54.554Z,98735.61
2018-12-31T10:00:00.087Z,98734.83
2018-12-31T10:03:05.425Z,98733.52
2018-12-31T10:06:10.869Z,98730.98
2018-12-31T10:09:17.005Z,98727.05
2018-12-31T10:12:22.469Z,98725.52
2018-12-31T10:15:27.813Z,98725.45
2018-12-31T10:18:33.263Z,98723.65
2018-12-31T10:21:41.077Z,98720.41
2018-12-31T10:24:45.898Z,98725.30
2018-12-31T10:27:51.171Z,98717.88
2018-12-31T10:30:56.926Z,98718.41
2018-12-31T10:34:02.206Z,98719.48
2018-12-31T10:37:07.693Z,98716.87
2018-12-31T10:40:12.962Z,98720.33
2018-12-31T10:43:18.517Z,98713.96
2018-12-31T10:46:23.793Z,98709.44
2018-12-31T10:49:29.166Z,98718.55
2018-12-31T10:52:34.768Z,98712.41
2018-12-31T10:55:40.174Z,98712.13
2018-12-31T10:58:45.446Z,98713.09
2018-12-31T11:01:50.852Z,98709.86
2018-12-31T11:04:56.240Z,98702.34
2018-12-31T11:08:01.648Z,98709.23
2018-12-31T11:11:07.761Z,98710.42
2018-12-31T11:14:13.153Z,98703.24
2018-12-31T11:17:18.441Z,98708.08
2018-12-31T11:20:23.844Z,98701.87
2018-12-31T11:23:29.124Z,98705.80
2018-12-31T11:26:34.534Z,98705.45
2018-12-31T11:29:39.912Z,98702.05
2018-12-31T11:32:45.327Z,98707.23
2018-12-31T11:35:50.598Z,98709.05
2018-12-31T11:38:56.047Z,98706.02
2018-12-31T11:42:01.532Z,98717.03
2018-12-31T11:45:07.401Z,98722.69
2018-12-31T11:48:12.692Z,98725.37
2018-12-31T11:51:18.311Z,98722.77
2018-12-31T11:54:23.597Z,98718.90
2018-12-31T11:57:31.873Z,98721.15
2018-12-31T12:00:37.224Z,98721.15
2018-12-31T12:03:42.925Z,98719.84
2018-12-31T12:06:48.196Z,98731.63
2018-12-31T12:09:53.657Z,98732.48
2018-12-31T12:12:59.389Z,98747.45
2018-12-31T12:16:04.861Z,98744.83
2018-12-31T12:19:10.142Z,98746.20
2018-12-31T12:22:15.550Z,98754.42
2018-12-31T12:25:21.405Z,98759.54
2018-12-31T12:28:26.852Z,98757.73
2018-12-31T12:31:32.131Z,98757.61
2018-12-31T12:34:37.550Z,98752.61
2018-12-31T12:37:48.439Z,98763.41
2018-12-31T12:40:50.074Z,98760.01
2018-12-31T12:43:55.356Z,98766.21
2018-12-31T12:47:00.874Z,98767.23
2018-12-31T12:50:06.799Z,98773.79
2018-12-31T12:53:12.167Z,98774.28
2018-12-31T12:56:17.461Z,98773.84
2018-12-31T12:59:22.863Z,98776.00
2018-12-31T13:02:28.211Z,98774.55
2018-12-31T13:05:33.754Z,98776.20
2018-12-31T13:08:39.136Z,98779.20
2018-12-31T13:11:44.548Z,98782.23
2018-12-31T13:14:50.636Z,98779.00
2018-12-31T13:17:56.052Z,98782.03
2018-12-31T13:21:01.328Z,98784.86
2018-12-31T13:24:06.911Z,98779.67
2018-12-31T13:27:12.180Z,98787.45
2018-12-31T13:30:17.636Z,98789.64
2018-12-31T13:33:22.918Z,98786.20
2018-12-31T13:36:30.577Z,98788.77
2018-12-31T13:39:35.896Z,98789.11
2018-12-31T13:42:41.368Z,98790.95
2018-12-31T13:45:46.649Z,98784.22
2018-12-31T13:48:52.575Z,98789.78
2018-12-31T13:51:58.177Z,98789.55
2018-12-31T13:55:03.568Z,98797.00
2018-12-31T13:58:09.953Z,98787.53
2018-12-31T14:01:15.584Z,98796.30
2018-12-31T14:04:20.936Z,98795.39
2018-12-31T14:07:27.099Z,98794.90
2018-12-31T14:10:32.379Z,98798.13
2018-12-31T14:13:38.097Z,98804.21
2018-12-31T14:16:44.321Z,98805.58
2018-12-31T14:19:49.704Z,98803.37
2018-12-31T14:22:55.642Z,98813.44
2018-12-31T14:26:01.284Z,98816.96
2018-12-31T14:29:06.567Z,98821.91
2018-12-31T14:32:12.109Z,98825.95
2018-12-31T14:35:17.454Z,98829.93
2018-12-31T14:38:22.814Z,98835.12
2018-12-31T14:41:28.154Z,98834.63
2018-12-31T14:44:33.585Z,98831.24
2018-12-31T14:47:39.132Z,98840.47
2018-12-31T14:50:44.591Z,98838.34
2018-12-31T14:53:49.871Z,98839.64
2018-12-31T14:56:55.277Z,98845.47
2018-12-31T15:00:00.554Z,98844.48
2018-12-31T15:03:06.097Z,98854.52
2018-12-31T15:06:11.380Z,98853.65
2018-12-31T15:09:17.016Z,98855.06
2018-12-31T15:12:22.559Z,98862.14
2018-12-31T15:15:27.958Z,98855.59
2018-12-31T15:18:34.916Z,98863.75
2018-12-31T15:21:40.491Z,98863.34
2018-12-31T15:24:46.226Z,98872.70
2018-12-31T15:27:53.743Z,98864.89
2018-12-31T15:30:59.025Z,98870.14
2018-12-31T15:34:04.428Z,98877.16
2018-12-31T15:37:10.092Z,98878.84
2018-12-31T15:40:15.527Z,98882.09
2018-12-31T15:43:20.801Z,98883.83
2018-12-31T15:46:26.319Z,98885.09
2018-12-31T15:49:31.593Z,98888.13
2018-12-31T15:52:37.031Z,98891.34
2018-12-31T15:55:42.817Z,98899.02
2018-12-31T15:58:48.196Z,98892.36
2018-12-31T16:01:53.472Z,98894.98
2018-12-31T16:04:58.897Z,98901.53
2018-12-31T16:08:04.186Z,98904.31
2018-12-31T16:11:09.698Z,98908.29
2018-12-31T16:14:15.008Z,98906.98
2018-12-31T16:17:20.483Z,98915.63
2018-12-31T16:20:25.908Z,98917.05
2018-12-31T16:23:33.735Z,98920.88
2018-12-31T16:26:39.016Z,98921.77
2018-12-31T16:29:44.448Z,98924.39
2018-12-31T16:32:49.721Z,98929.63
2018-12-31T16:35:55.829Z,98927.95
2018-12-31T16:39:01.149Z,98932.72
2018-12-31T16:42:06.619Z,98938.06
2018-12-31T16:45:11.904Z,98938.02
2018-12-31T16:48:17.307Z,98937.59
2018-12-31T16:51:22.592Z,98937.16
2018-12-31T16:54:27.994Z,98943.36
2018-12-31T16:57:33.277Z,98941.94
2018-12-31T17:00:38.689Z,98949.44
2018-12-31T17:03:43.970Z,98950.28
2018-12-31T17:06:49.374Z,98952.52
2018-12-31T17:09:54.661Z,98948.98
2018-12-31T17:13:00.030Z,98950.91
2018-12-31T17:16:05.304Z,98943.05
2018-12-31T17:19:10.753Z,98945.25
2018-12-31T17:22:16.132Z,98949.23
2018-12-31T17:25:21.908Z,98944.89
2018-12-31T17:28:27.453Z,98952.28
2018-12-31T17:31:32.850Z,98957.78
2018-12-31T17:34:38.131Z,98959.63
2018-12-31T17:37:43.541Z,98959.67
2018-12-31T17:40:48.827Z,98960.42
2018-12-31T17:43:54.229Z,98967.80
2018-12-31T17:46:59.550Z,98971.98
2018-12-31T17:50:07.361Z,98975.19
2018-12-31T17:53:12.641Z,98974.76
2018-12-31T17:56:18.385Z,98978.38
2018-12-31T17:59:26.222Z,98979.27
2018-12-31T18:02:31.615Z,98978.91
2018-12-31T18:05:36.942Z,98982.88
2018-12-31T18:08:42.717Z,98980.70
2018-12-31T18:11:47.994Z,98987.61
2018-12-31T18:14:53.411Z,98990.18
2018-12-31T18:17:58.693Z,98995.25
2018-12-31T18:21:04.102Z,98996.51
2018-12-31T18:24:09.473Z,98997.34
2018-12-31T18:27:14.987Z,99007.41
2018-12-31T18:30:20.271Z,99010.12
2018-12-31T18:33:25.682Z,99014.95
2018-12-31T18:36:30.957Z,99018.97
2018-12-31T18:39:36.377Z,99007.62
2018-12-31T18:42:41.645Z,99013.41
2018-12-31T18:45:47.063Z,99006.94
2018-12-31T18:48:52.344Z,99003.58
2018-12-31T18:51:58.110Z,98998.34
2018-12-31T18:55:03.847Z,99003.73
2018-12-31T18:58:09.258Z,99008.17
2018-12-31T19:01:14.581Z,99006.34
2018-12-31T19:04:20.050Z,98999.85
2018-12-31T19:07:25.335Z,98996.34
2018-12-31T19:10:30.741Z,98993.72
2018-12-31T19:13:36.031Z,98998.49
2018-12-31T19:16:41.542Z,98999.85
2018-12-31T19:19:47.133Z,98997.33
2018-12-31T19:22:52.632Z,98999.96
2018-12-31T19:25:58.077Z,98995.72
2018-12-31T19:29:03.486Z,98994.83
2018-12-31T19:32:08.774Z,98995.19
2018-12-31T19:35:14.217Z,98985.18
2018-12-31T19:38:19.499Z,98989.91
2018-12-31T19:41:25.313Z,98986.92
2018-12-31T19:44:30.597Z,98988.73
2018-12-31T19:47:36.001Z,98993.47
2018-12-31T19:50:41.289Z,98986.44
2018-12-31T19:53:46.691Z,98989.86
2018-12-31T19:56:51.986Z,98993.77
2018-12-31T19:59:57.381Z,98984.14
2018-12-31T20:03:02.712Z,98990.95
2018-12-31T20:06:08.180Z,98995.66
2018-12-31T20:09:13.462Z,98994.88
2018-12-31T20:12:18.862Z,98985.67
2018-12-31T20:15:24.520Z,98990.11
2018-12-31T20:18:29.963Z,98987.55
2018-12-31T20:21:35.241Z,98978.91
2018-12-31T20:24:40.609Z,98986.34
2018-12-31T20:27:45.967Z,98979.38
2018-12-31T20:30:51.443Z,98978.53
2018-12-31T20:33:56.762Z,98980.69
2018-12-31T20:37:02.436Z,98986.39
2018-12-31T20:40:08.164Z,98981.06
2018-12-31T20:43:13.647Z,98973.25
2018-12-31T20:46:18.924Z,98972.47
2018-12-31T20:49:24.690Z,98968.55
2018-12-31T20:52:30.062Z,98968.21
2018-12-31T20:55:35.537Z,98972.98
2018-12-31T20:58:41.201Z,98972.57
2018-12-31T21:01:46.630Z,98974.39
2018-12-31T21:04:51.962Z,98972.98
2018-12-31T21:07:57.422Z,98970.41
2018-12-31T21:11:02.703Z,98978.22
2018-12-31T21:14:08.109Z,98974.75
2018-12-31T21:17:13.391Z,98973.92
2018-12-31T21:20:18.759Z,98976.64
2018-12-31T21:23:24.124Z,98973.09
2018-12-31T21:26:29.593Z,98964.77
2018-12-31T21:29:34.976Z,98955.23
2018-12-31T21:32:40.586Z,98951.31
2018-12-31T21:35:45.869Z,98944.28
2018-12-31T21:38:51.536Z,98952.09
2018-12-31T21:41:56.810Z,98961.56
2018-12-31T21:45:02.274Z,98954.61
2018-12-31T21:48:07.561Z,98959.42
2018-12-31T21:51:12.963Z,98954.19
2018-12-31T21:54:18.243Z,98951.19
2018-12-31T21:57:23.650Z,98947.33
2018-12-31T22:00:28.933Z,98943.35
2018-12-31T22:03:34.366Z,98943.04
2018-12-31T22:06:40.123Z,98939.63
2018-12-31T22:09:45.545Z,98944.49
2018-12-31T22:12:50.827Z,98946.74
2018-12-31T22:15:56.229Z,98939.35
2018-12-31T22:19:01.520Z,98939.42
2018-12-31T22:22:06.922Z,98937.27
2018-12-31T22:25:12.248Z,98929.00
2018-12-31T22:28:17.710Z,98927.37
2018-12-31T22:31:23.806Z,98928.31
2018-12-31T22:34:29.231Z,98924.95
2018-12-31T22:37:34.509Z,98923.22
2018-12-31T22:40:40.213Z,98930.13
2018-12-31T22:43:45.495Z,98927.95
2018-12-31T22:46:50.904Z,98928.83
2018-12-31T22:49:56.190Z,98927.10
2018-12-31T22:53:01.600Z,98926.64
2018-12-31T22:56:06.877Z,98917.89
2018-12-31T22:59:12.254Z,98911.40
2018-12-31T23:02:17.542Z,98913.08
2018-12-31T23:05:23.105Z,98907.52
2018-12-31T23:08:28.387Z,98898.73
2018-12-31T23:11:33.768Z,98883.88
2018-12-31T23:14:39.051Z,98877.95
2018-12-31T23:17:44.462Z,98873.19
2018-12-31T23:20:49.738Z,98854.88
2018-12-31T23:23:55.146Z,98863.66
2018-12-31T23:27:00.803Z,98866.76
2018-12-31T23:30:10.011Z,98862.77
2018-12-31T23:33:16.429Z,98855.30
2018-12-31T23:36:21.844Z,98856.03
2018-12-31T23:39:27.497Z,98845.98
2018-12-31T23:42:33.051Z,98848.75
2018-12-31T23:45:38.328Z,98837.91
2018-12-31T23:48:43.837Z,98840.42
2018-12-31T23:51:49.122Z,98848.59
2018-12-31T23:54:54.530Z,98854.49
2018-12-31T23:57:59.805Z,98852.28
